首页
METAR-TAF:

METAR-TAF

机场 :

Hurlburt Field

Mary Esther, 佛罗里达州, 美国

纬度: 30-25N, 经度: 086-41W, 海拔: 12米

当前天气观测

该预报发布于57分钟前的19:56 UTC
风速11节,风向
温度 24°C
湿度 78%
气压 1019 hPa
能見度: 16.1公里
散云层高于2000英尺

METAR: KHRT 261956Z 17011KT 10SM SCT020 24/20 A3008 RMK AO2A SLP188 T02420197 $

时间: 14:53 (20:53 UTC)

预报

该预报发布于2小时和53分钟前的18:00 UTC
预报有效从26日的 18点(UTC)到 27日的 24点(UTC)
风速9节,风向
能见度10公里或以上
散云层高于2000英尺
多云层高于25000英尺
成为
从 27日的 00点(UTC)到 27日的 01点(UTC)
风速5节,风向
能见度10公里或以上
散云层高于2000英尺
多云层高于25000英尺
成为
从 27日的 05点(UTC)到 27日的 06点(UTC)
风速5节,风向
能見度: 4800
散云层高于300英尺
多云层高于2000英尺
多云层高于25000英尺
轻雾
短暂存在
从 27日的 08点(UTC)到 27日的 15点(UTC)
能見度: 0800
层高于200英尺
成为
从 27日的 14点(UTC)到 27日的 15点(UTC)
风速5节,风向
能见度10公里或以上
散云层高于2000英尺
多云层高于25000英尺

TAF: KHRT 261800Z 2618/2724 18009KT 9999 SCT020 BKN250 QNH3010INS BECMG 2700/2701 36005KT 9999 SCT020 BKN250 QHN3003INS BECMG 2705/2706 36005KT 4800 BR SCT003 BKN020 BKN250 QNH3002INS TEMPO 2708/2715 0800 FG VV002 BECMG 2714/2715 18005KT 9999 SCT020 BKN250 QHN3005INS TX26/2618Z TN13/2707Z

超过4000个机场的气象观测和天气预报(METAR&TAF报告)。

可查询的气象台以黄色和红色小点在地图上表示。

将鼠标移到小点上方,可查看气象台名称。

然后点击查看天气观测和预报。

如需切换地图:点击带黑十字的绿色按钮放大地图;点击带横线的绿色按钮缩小地图;或者点击绿色箭头查看邻近地区的地图。


METAR-TAF: